sensor_id;sensor_type;location;lat;lon;timestamp;temperature;humidity
36594;DHT22;22603;47.900;8.146;2023-07-13T00:00:18;16.60;99.90
36594;DHT22;22603;47.900;8.146;2023-07-13T00:03:06;16.60;99.90
36594;DHT22;22603;47.900;8.146;2023-07-13T00:05:58;16.60;99.90
36594;DHT22;22603;47.900;8.146;2023-07-13T00:08:46;16.60;99.90
36594;DHT22;22603;47.900;8.146;2023-07-13T00:11:34;16.60;99.90
36594;DHT22;22603;47.900;8.146;2023-07-13T00:14:21;16.60;99.90
36594;DHT22;22603;47.900;8.146;2023-07-13T00:17:08;16.50;99.90
36594;DHT22;22603;47.900;8.146;2023-07-13T00:19:56;16.50;99.90
36594;DHT22;22603;47.900;8.146;2023-07-13T00:22:44;16.50;99.90
36594;DHT22;22603;47.900;8.146;2023-07-13T00:25:32;16.50;99.90
36594;DHT22;22603;47.900;8.146;2023-07-13T00:28:20;16.50;99.90
36594;DHT22;22603;47.900;8.146;2023-07-13T00:31:08;16.50;99.90
36594;DHT22;22603;47.900;8.146;2023-07-13T00:33:55;16.50;99.90
36594;DHT22;22603;47.900;8.146;2023-07-13T00:36:42;16.50;99.90
36594;DHT22;22603;47.900;8.146;2023-07-13T00:39:29;16.50;99.90
36594;DHT22;22603;47.900;8.146;2023-07-13T00:42:17;16.50;99.90
36594;DHT22;22603;47.900;8.146;2023-07-13T00:45:07;16.50;99.90
36594;DHT22;22603;47.900;8.146;2023-07-13T00:47:55;16.50;99.90
36594;DHT22;22603;47.900;8.146;2023-07-13T00:50:44;16.50;99.90
36594;DHT22;22603;47.900;8.146;2023-07-13T00:53:33;16.50;99.90
36594;DHT22;22603;47.900;8.146;2023-07-13T00:56:20;16.50;99.90
36594;DHT22;22603;47.900;8.146;2023-07-13T00:59:10;16.50;99.90
36594;DHT22;22603;47.900;8.146;2023-07-13T01:01:58;16.40;99.90
36594;DHT22;22603;47.900;8.146;2023-07-13T01:04:44;16.40;99.90
36594;DHT22;22603;47.900;8.146;2023-07-13T01:07:32;16.40;99.90
36594;DHT22;22603;47.900;8.146;2023-07-13T01:10:22;16.30;99.90
36594;DHT22;22603;47.900;8.146;2023-07-13T01:13:10;16.20;99.90
36594;DHT22;22603;47.900;8.146;2023-07-13T01:16:03;16.20;99.90
36594;DHT22;22603;47.900;8.146;2023-07-13T01:18:54;16.10;99.90
36594;DHT22;22603;47.900;8.146;2023-07-13T01:21:50;16.00;99.90
36594;DHT22;22603;47.900;8.146;2023-07-13T01:24:40;16.00;99.90
36594;DHT22;22603;47.900;8.146;2023-07-13T01:27:28;15.90;99.90
36594;DHT22;22603;47.900;8.146;2023-07-13T01:30:15;15.80;99.90
36594;DHT22;22603;47.900;8.146;2023-07-13T01:33:02;15.80;99.90
36594;DHT22;22603;47.900;8.146;2023-07-13T01:35:50;15.70;99.90
36594;DHT22;22603;47.900;8.146;2023-07-13T01:38:38;15.60;99.90
36594;DHT22;22603;47.900;8.146;2023-07-13T01:41:29;15.60;99.90
36594;DHT22;22603;47.900;8.146;2023-07-13T01:44:16;15.60;99.90
36594;DHT22;22603;47.900;8.146;2023-07-13T01:47:04;15.50;99.90
36594;DHT22;22603;47.900;8.146;2023-07-13T01:49:51;15.50;99.90
36594;DHT22;22603;47.900;8.146;2023-07-13T01:52:38;15.40;99.90
36594;DHT22;22603;47.900;8.146;2023-07-13T01:55:28;15.40;99.90
36594;DHT22;22603;47.900;8.146;2023-07-13T01:58:15;15.30;99.90
36594;DHT22;22603;47.900;8.146;2023-07-13T02:01:02;15.30;99.90
36594;DHT22;22603;47.900;8.146;2023-07-13T02:03:48;15.30;99.90
36594;DHT22;22603;47.900;8.146;2023-07-13T02:06:35;15.40;99.90
36594;DHT22;22603;47.900;8.146;2023-07-13T02:09:22;15.40;99.90
36594;DHT22;22603;47.900;8.146;2023-07-13T02:12:10;15.30;99.90
36594;DHT22;22603;47.900;8.146;2023-07-13T02:14:57;15.30;99.90
36594;DHT22;22603;47.900;8.146;2023-07-13T02:17:45;15.30;99.90
36594;DHT22;22603;47.900;8.146;2023-07-13T02:20:32;15.30;99.90
36594;DHT22;22603;47.900;8.146;2023-07-13T02:23:19;15.30;99.90
36594;DHT22;22603;47.900;8.146;2023-07-13T02:26:06;15.30;99.90
36594;DHT22;22603;47.900;8.146;2023-07-13T02:28:55;15.30;99.90
36594;DHT22;22603;47.900;8.146;2023-07-13T02:31:41;15.20;99.90
36594;DHT22;22603;47.900;8.146;2023-07-13T02:34:29;15.10;99.90
36594;DHT22;22603;47.900;8.146;2023-07-13T02:37:19;15.00;99.90
36594;DHT22;22603;47.900;8.146;2023-07-13T02:40:08;14.90;99.90
36594;DHT22;22603;47.900;8.146;2023-07-13T02:42:55;14.80;99.90
36594;DHT22;22603;47.900;8.146;2023-07-13T02:45:45;14.70;99.90
36594;DHT22;22603;47.900;8.146;2023-07-13T02:48:32;14.60;99.90
36594;DHT22;22603;47.900;8.146;2023-07-13T02:51:19;14.50;99.90
36594;DHT22;22603;47.900;8.146;2023-07-13T02:54:06;14.40;99.90
36594;DHT22;22603;47.900;8.146;2023-07-13T02:56:54;14.40;99.90
36594;DHT22;22603;47.900;8.146;2023-07-13T02:59:41;14.40;99.90
36594;DHT22;22603;47.900;8.146;2023-07-13T03:02:30;14.40;99.90
36594;DHT22;22603;47.900;8.146;2023-07-13T03:05:17;14.40;99.90
36594;DHT22;22603;47.900;8.146;2023-07-13T03:08:05;14.40;99.90
36594;DHT22;22603;47.900;8.146;2023-07-13T03:10:59;14.40;99.90
36594;DHT22;22603;47.900;8.146;2023-07-13T03:13:46;14.30;99.90
36594;DHT22;22603;47.900;8.146;2023-07-13T03:16:34;14.30;99.90
36594;DHT22;22603;47.900;8.146;2023-07-13T03:19:22;14.20;99.90
36594;DHT22;22603;47.900;8.146;2023-07-13T03:22:09;14.20;99.90
36594;DHT22;22603;47.900;8.146;2023-07-13T03:24:56;14.10;99.90
36594;DHT22;22603;47.900;8.146;2023-07-13T03:27:43;14.00;99.90
36594;DHT22;22603;47.900;8.146;2023-07-13T03:30:30;13.90;99.90
36594;DHT22;22603;47.900;8.146;2023-07-13T03:33:17;13.80;99.90
36594;DHT22;22603;47.900;8.146;2023-07-13T03:36:06;13.80;99.90
36594;DHT22;22603;47.900;8.146;2023-07-13T03:38:56;13.80;99.90
36594;DHT22;22603;47.900;8.146;2023-07-13T03:41:43;13.80;99.90
36594;DHT22;22603;47.900;8.146;2023-07-13T03:44:30;13.80;99.90
36594;DHT22;22603;47.900;8.146;2023-07-13T03:47:18;13.80;99.90
36594;DHT22;22603;47.900;8.146;2023-07-13T03:50:06;13.80;99.90
36594;DHT22;22603;47.900;8.146;2023-07-13T03:52:54;13.80;99.90
36594;DHT22;22603;47.900;8.146;2023-07-13T03:55:41;13.80;99.90
36594;DHT22;22603;47.900;8.146;2023-07-13T03:58:31;13.90;99.90
36594;DHT22;22603;47.900;8.146;2023-07-13T04:01:21;13.90;99.90
36594;DHT22;22603;47.900;8.146;2023-07-13T04:04:08;13.80;99.90
36594;DHT22;22603;47.900;8.146;2023-07-13T04:06:55;13.90;99.90
36594;DHT22;22603;47.900;8.146;2023-07-13T04:09:44;13.90;99.90
36594;DHT22;22603;47.900;8.146;2023-07-13T04:12:31;13.90;99.90
36594;DHT22;22603;47.900;8.146;2023-07-13T04:15:18;13.80;99.90
36594;DHT22;22603;47.900;8.146;2023-07-13T04:18:05;13.90;99.90
36594;DHT22;22603;47.900;8.146;2023-07-13T04:20:51;13.90;99.90
36594;DHT22;22603;47.900;8.146;2023-07-13T04:23:39;14.00;99.90
36594;DHT22;22603;47.900;8.146;2023-07-13T04:26:28;13.90;99.90
36594;DHT22;22603;47.900;8.146;2023-07-13T04:29:15;14.00;99.90
36594;DHT22;22603;47.900;8.146;2023-07-13T04:32:02;14.00;99.90
36594;DHT22;22603;47.900;8.146;2023-07-13T04:34:49;14.00;99.90
36594;DHT22;22603;47.900;8.146;2023-07-13T04:37:39;14.10;99.90
36594;DHT22;22603;47.900;8.146;2023-07-13T04:40:27;14.20;99.90
36594;DHT22;22603;47.900;8.146;2023-07-13T04:43:15;14.30;99.90
36594;DHT22;22603;47.900;8.146;2023-07-13T04:46:07;14.30;99.90
36594;DHT22;22603;47.900;8.146;2023-07-13T04:48:54;14.40;99.90
36594;DHT22;22603;47.900;8.146;2023-07-13T04:51:42;14.40;99.90
36594;DHT22;22603;47.900;8.146;2023-07-13T04:54:29;14.50;99.90
36594;DHT22;22603;47.900;8.146;2023-07-13T04:57:16;14.50;99.90
36594;DHT22;22603;47.900;8.146;2023-07-13T05:00:05;14.60;99.90
36594;DHT22;22603;47.900;8.146;2023-07-13T05:02:54;14.60;99.90
36594;DHT22;22603;47.900;8.146;2023-07-13T05:05:42;14.70;99.90
36594;DHT22;22603;47.900;8.146;2023-07-13T05:08:29;14.80;99.90
36594;DHT22;22603;47.900;8.146;2023-07-13T05:11:18;14.80;99.90
36594;DHT22;22603;47.900;8.146;2023-07-13T05:14:05;14.90;99.90
36594;DHT22;22603;47.900;8.146;2023-07-13T05:16:53;15.00;99.90
36594;DHT22;22603;47.900;8.146;2023-07-13T05:19:42;15.10;99.90
36594;DHT22;22603;47.900;8.146;2023-07-13T05:22:29;15.10;99.90
36594;DHT22;22603;47.900;8.146;2023-07-13T05:25:16;15.10;99.90
36594;DHT22;22603;47.900;8.146;2023-07-13T05:28:03;15.20;99.90
36594;DHT22;22603;47.900;8.146;2023-07-13T05:30:51;15.30;99.90
36594;DHT22;22603;47.900;8.146;2023-07-13T05:33:39;15.30;99.90
36594;DHT22;22603;47.900;8.146;2023-07-13T05:36:27;15.30;99.90
36594;DHT22;22603;47.900;8.146;2023-07-13T05:39:14;15.40;99.90
36594;DHT22;22603;47.900;8.146;2023-07-13T05:42:02;15.40;99.90
36594;DHT22;22603;47.900;8.146;2023-07-13T05:44:49;15.50;99.90
36594;DHT22;22603;47.900;8.146;2023-07-13T05:47:36;15.60;99.90
36594;DHT22;22603;47.900;8.146;2023-07-13T05:50:25;15.70;99.90
36594;DHT22;22603;47.900;8.146;2023-07-13T05:53:13;15.90;99.90
36594;DHT22;22603;47.900;8.146;2023-07-13T05:56:00;16.10;99.90
36594;DHT22;22603;47.900;8.146;2023-07-13T05:58:48;16.20;99.90
36594;DHT22;22603;47.900;8.146;2023-07-13T06:01:35;16.20;99.90
36594;DHT22;22603;47.900;8.146;2023-07-13T06:04:22;16.20;99.90
36594;DHT22;22603;47.900;8.146;2023-07-13T06:07:10;16.20;99.90
36594;DHT22;22603;47.900;8.146;2023-07-13T06:09:57;16.20;99.90
36594;DHT22;22603;47.900;8.146;2023-07-13T06:12:44;16.40;99.90
36594;DHT22;22603;47.900;8.146;2023-07-13T06:15:32;16.60;99.90
36594;DHT22;22603;47.900;8.146;2023-07-13T06:18:18;16.80;99.90
36594;DHT22;22603;47.900;8.146;2023-07-13T06:21:07;16.90;99.90
36594;DHT22;22603;47.900;8.146;2023-07-13T06:23:57;16.80;99.90
36594;DHT22;22603;47.900;8.146;2023-07-13T06:26:44;16.80;99.90
36594;DHT22;22603;47.900;8.146;2023-07-13T06:29:31;16.90;99.90
36594;DHT22;22603;47.900;8.146;2023-07-13T06:32:18;17.20;99.90
36594;DHT22;22603;47.900;8.146;2023-07-13T06:35:06;17.60;99.90
36594;DHT22;22603;47.900;8.146;2023-07-13T06:37:53;17.80;99.90
36594;DHT22;22603;47.900;8.146;2023-07-13T06:40:41;18.00;99.90
36594;DHT22;22603;47.900;8.146;2023-07-13T06:43:28;18.40;99.90
36594;DHT22;22603;47.900;8.146;2023-07-13T06:46:17;18.80;99.90
36594;DHT22;22603;47.900;8.146;2023-07-13T06:49:05;18.70;99.90
36594;DHT22;22603;47.900;8.146;2023-07-13T06:51:52;19.00;99.90
36594;DHT22;22603;47.900;8.146;2023-07-13T06:54:39;18.80;99.90
36594;DHT22;22603;47.900;8.146;2023-07-13T06:57:29;18.80;99.90
36594;DHT22;22603;47.900;8.146;2023-07-13T07:00:17;19.20;99.90
36594;DHT22;22603;47.900;8.146;2023-07-13T07:03:04;20.10;99.90
36594;DHT22;22603;47.900;8.146;2023-07-13T07:05:51;20.40;99.90
36594;DHT22;22603;47.900;8.146;2023-07-13T07:08:38;21.30;99.90
36594;DHT22;22603;47.900;8.146;2023-07-13T07:11:26;21.00;99.90
36594;DHT22;22603;47.900;8.146;2023-07-13T07:14:14;20.80;99.90
36594;DHT22;22603;47.900;8.146;2023-07-13T07:17:02;21.20;99.90
36594;DHT22;22603;47.900;8.146;2023-07-13T07:19:49;21.60;99.90
36594;DHT22;22603;47.900;8.146;2023-07-13T07:22:36;22.50;99.90
36594;DHT22;22603;47.900;8.146;2023-07-13T07:25:23;22.50;99.90
36594;DHT22;22603;47.900;8.146;2023-07-13T07:28:11;21.90;99.90
36594;DHT22;22603;47.900;8.146;2023-07-13T07:31:19;21.60;99.90
36594;DHT22;22603;47.900;8.146;2023-07-13T07:34:09;22.90;99.90
36594;DHT22;22603;47.900;8.146;2023-07-13T07:37:00;24.00;99.90
36594;DHT22;22603;47.900;8.146;2023-07-13T07:39:50;23.80;99.90
36594;DHT22;22603;47.900;8.146;2023-07-13T07:42:57;24.00;99.90
36594;DHT22;22603;47.900;8.146;2023-07-13T07:45:45;23.80;99.90
36594;DHT22;22603;47.900;8.146;2023-07-13T07:48:34;23.50;99.90
36594;DHT22;22603;47.900;8.146;2023-07-13T07:51:20;23.80;99.90
36594;DHT22;22603;47.900;8.146;2023-07-13T07:54:08;24.60;99.90
36594;DHT22;22603;47.900;8.146;2023-07-13T07:56:59;24.30;99.90
36594;DHT22;22603;47.900;8.146;2023-07-13T08:00:07;23.20;99.90
36594;DHT22;22603;47.900;8.146;2023-07-13T08:02:58;23.40;99.90
36594;DHT22;22603;47.900;8.146;2023-07-13T08:06:07;23.90;99.90
36594;DHT22;22603;47.900;8.146;2023-07-13T08:08:56;23.50;99.90
36594;DHT22;22603;47.900;8.146;2023-07-13T08:11:43;23.40;99.90
36594;DHT22;22603;47.900;8.146;2023-07-13T08:14:33;24.10;99.90
36594;DHT22;22603;47.900;8.146;2023-07-13T08:17:37;25.00;99.90
36594;DHT22;22603;47.900;8.146;2023-07-13T08:20:24;26.00;99.90
36594;DHT22;22603;47.900;8.146;2023-07-13T08:23:12;25.40;99.90
36594;DHT22;22603;47.900;8.146;2023-07-13T08:25:59;25.90;99.90
36594;DHT22;22603;47.900;8.146;2023-07-13T08:28:47;26.30;99.90
36594;DHT22;22603;47.900;8.146;2023-07-13T08:31:34;27.30;99.90
36594;DHT22;22603;47.900;8.146;2023-07-13T08:34:21;27.00;99.90
36594;DHT22;22603;47.900;8.146;2023-07-13T08:37:09;27.30;99.90
36594;DHT22;22603;47.900;8.146;2023-07-13T08:39:57;26.90;99.90
36594;DHT22;22603;47.900;8.146;2023-07-13T08:42:46;25.90;99.90
36594;DHT22;22603;47.900;8.146;2023-07-13T08:45:42;26.70;99.90
36594;DHT22;22603;47.900;8.146;2023-07-13T08:48:33;27.50;99.90
36594;DHT22;22603;47.900;8.146;2023-07-13T08:51:29;27.60;99.90
36594;DHT22;22603;47.900;8.146;2023-07-13T08:54:21;27.50;99.90
36594;DHT22;22603;47.900;8.146;2023-07-13T08:57:13;28.10;99.90
36594;DHT22;22603;47.900;8.146;2023-07-13T09:00:05;27.40;99.90
36594;DHT22;22603;47.900;8.146;2023-07-13T09:02:56;26.70;99.90
36594;DHT22;22603;47.900;8.146;2023-07-13T09:05:49;27.00;99.90
36594;DHT22;22603;47.900;8.146;2023-07-13T09:08:48;27.50;99.90
36594;DHT22;22603;47.900;8.146;2023-07-13T09:11:46;27.80;99.90
36594;DHT22;22603;47.900;8.146;2023-07-13T09:14:42;28.10;99.90
36594;DHT22;22603;47.900;8.146;2023-07-13T09:17:35;28.50;99.90
36594;DHT22;22603;47.900;8.146;2023-07-13T09:20:26;28.80;99.90
36594;DHT22;22603;47.900;8.146;2023-07-13T09:23:19;27.80;99.90
36594;DHT22;22603;47.900;8.146;2023-07-13T09:26:11;26.70;99.90
36594;DHT22;22603;47.900;8.146;2023-07-13T09:29:09;26.10;99.90
36594;DHT22;22603;47.900;8.146;2023-07-13T09:32:03;26.80;99.90
36594;DHT22;22603;47.900;8.146;2023-07-13T09:34:52;26.40;99.90
36594;DHT22;22603;47.900;8.146;2023-07-13T09:37:39;26.90;99.90
36594;DHT22;22603;47.900;8.146;2023-07-13T09:40:32;27.10;99.90
36594;DHT22;22603;47.900;8.146;2023-07-13T09:43:21;27.20;99.90
36594;DHT22;22603;47.900;8.146;2023-07-13T09:46:20;27.40;99.90
36594;DHT22;22603;47.900;8.146;2023-07-13T09:49:11;27.20;99.90
36594;DHT22;22603;47.900;8.146;2023-07-13T09:51:59;27.20;99.90
36594;DHT22;22603;47.900;8.146;2023-07-13T09:54:50;27.00;99.90
36594;DHT22;22603;47.900;8.146;2023-07-13T09:57:46;26.40;99.90
36594;DHT22;22603;47.900;8.146;2023-07-13T10:00:36;27.00;99.90
36594;DHT22;22603;47.900;8.146;2023-07-13T10:03:26;26.90;99.90
36594;DHT22;22603;47.900;8.146;2023-07-13T10:06:17;27.30;99.90
36594;DHT22;22603;47.900;8.146;2023-07-13T10:09:07;27.50;99.90
36594;DHT22;22603;47.900;8.146;2023-07-13T10:11:58;27.90;99.90
36594;DHT22;22603;47.900;8.146;2023-07-13T10:14:45;28.10;99.90
36594;DHT22;22603;47.900;8.146;2023-07-13T10:17:32;26.80;99.90
36594;DHT22;22603;47.900;8.146;2023-07-13T10:20:20;26.60;99.90
36594;DHT22;22603;47.900;8.146;2023-07-13T10:23:18;26.90;99.90
36594;DHT22;22603;47.900;8.146;2023-07-13T10:26:14;27.00;99.90
36594;DHT22;22603;47.900;8.146;2023-07-13T10:29:05;27.40;99.90
36594;DHT22;22603;47.900;8.146;2023-07-13T10:31:54;26.70;99.90
36594;DHT22;22603;47.900;8.146;2023-07-13T10:34:46;25.80;99.90
36594;DHT22;22603;47.900;8.146;2023-07-13T10:37:41;25.10;99.90
36594;DHT22;22603;47.900;8.146;2023-07-13T10:40:36;24.90;99.90
36594;DHT22;22603;47.900;8.146;2023-07-13T10:43:27;24.80;99.90
36594;DHT22;22603;47.900;8.146;2023-07-13T11:14:31;24.40;99.90
36594;DHT22;22603;47.900;8.146;2023-07-13T11:17:36;26.00;99.90
36594;DHT22;22603;47.900;8.146;2023-07-13T11:20:31;25.70;99.90
36594;DHT22;22603;47.900;8.146;2023-07-13T11:23:28;25.30;99.90
36594;DHT22;22603;47.900;8.146;2023-07-13T11:26:39;24.70;99.90
36594;DHT22;22603;47.900;8.146;2023-07-13T11:29:36;24.30;99.90
36594;DHT22;22603;47.900;8.146;2023-07-13T11:32:25;23.80;99.90
36594;DHT22;22603;47.900;8.146;2023-07-13T11:35:14;23.70;99.90
36594;DHT22;22603;47.900;8.146;2023-07-13T11:38:12;23.50;99.90
36594;DHT22;22603;47.900;8.146;2023-07-13T11:41:04;23.30;99.90
36594;DHT22;22603;47.900;8.146;2023-07-13T11:43:53;23.20;99.90
36594;DHT22;22603;47.900;8.146;2023-07-13T11:46:47;24.20;99.90
36594;DHT22;22603;47.900;8.146;2023-07-13T11:49:42;25.40;99.90
36594;DHT22;22603;47.900;8.146;2023-07-13T11:52:33;26.10;99.90
36594;DHT22;22603;47.900;8.146;2023-07-13T12:04:51;27.70;99.90
36594;DHT22;22603;47.900;8.146;2023-07-13T12:07:39;27.90;99.90
36594;DHT22;22603;47.900;8.146;2023-07-13T12:10:28;28.40;99.90
36594;DHT22;22603;47.900;8.146;2023-07-13T12:13:17;28.40;99.90
36594;DHT22;22603;47.900;8.146;2023-07-13T12:16:14;28.70;99.90
36594;DHT22;22603;47.900;8.146;2023-07-13T12:19:02;28.90;99.90
36594;DHT22;22603;47.900;8.146;2023-07-13T12:21:53;29.00;99.90
36594;DHT22;22603;47.900;8.146;2023-07-13T12:24:42;28.80;99.90
36594;DHT22;22603;47.900;8.146;2023-07-13T12:27:29;28.00;99.90
36594;DHT22;22603;47.900;8.146;2023-07-13T12:30:27;28.10;99.90
36594;DHT22;22603;47.900;8.146;2023-07-13T12:33:17;27.70;99.90
36594;DHT22;22603;47.900;8.146;2023-07-13T12:36:05;27.30;99.90
36594;DHT22;22603;47.900;8.146;2023-07-13T12:38:54;27.80;99.90
36594;DHT22;22603;47.900;8.146;2023-07-13T12:41:42;28.00;99.90
36594;DHT22;22603;47.900;8.146;2023-07-13T12:44:31;28.10;99.90
36594;DHT22;22603;47.900;8.146;2023-07-13T12:47:20;28.10;99.90
36594;DHT22;22603;47.900;8.146;2023-07-13T12:50:14;28.20;99.90
36594;DHT22;22603;47.900;8.146;2023-07-13T12:53:04;28.50;99.90
36594;DHT22;22603;47.900;8.146;2023-07-13T12:55:55;28.00;99.90
36594;DHT22;22603;47.900;8.146;2023-07-13T12:58:46;27.20;99.90
36594;DHT22;22603;47.900;8.146;2023-07-13T13:01:39;26.90;99.90
36594;DHT22;22603;47.900;8.146;2023-07-13T13:04:28;27.10;99.90
36594;DHT22;22603;47.900;8.146;2023-07-13T13:07:15;27.20;99.90
36594;DHT22;22603;47.900;8.146;2023-07-13T13:10:11;26.80;99.90
36594;DHT22;22603;47.900;8.146;2023-07-13T13:13:00;26.20;99.90
36594;DHT22;22603;47.900;8.146;2023-07-13T13:15:49;26.00;99.90
36594;DHT22;22603;47.900;8.146;2023-07-13T13:18:35;26.00;99.90
36594;DHT22;22603;47.900;8.146;2023-07-13T13:21:23;26.10;99.90
36594;DHT22;22603;47.900;8.146;2023-07-13T13:24:12;26.40;99.90
36594;DHT22;22603;47.900;8.146;2023-07-13T13:26:59;26.40;99.90
36594;DHT22;22603;47.900;8.146;2023-07-13T13:29:49;26.20;99.90
36594;DHT22;22603;47.900;8.146;2023-07-13T13:32:37;26.30;99.90
36594;DHT22;22603;47.900;8.146;2023-07-13T13:35:25;26.50;99.90
36594;DHT22;22603;47.900;8.146;2023-07-13T13:38:13;25.90;99.90
36594;DHT22;22603;47.900;8.146;2023-07-13T13:41:00;25.70;99.90
36594;DHT22;22603;47.900;8.146;2023-07-13T13:43:47;26.00;99.90
36594;DHT22;22603;47.900;8.146;2023-07-13T13:46:36;26.70;99.90
36594;DHT22;22603;47.900;8.146;2023-07-13T13:49:24;27.00;99.90
36594;DHT22;22603;47.900;8.146;2023-07-13T13:52:11;26.50;99.90
36594;DHT22;22603;47.900;8.146;2023-07-13T13:55:00;25.90;99.90
36594;DHT22;22603;47.900;8.146;2023-07-13T13:57:48;26.00;99.90
36594;DHT22;22603;47.900;8.146;2023-07-13T14:00:35;26.10;99.90
36594;DHT22;22603;47.900;8.146;2023-07-13T14:03:27;26.00;99.90
36594;DHT22;22603;47.900;8.146;2023-07-13T14:06:15;26.70;99.90
36594;DHT22;22603;47.900;8.146;2023-07-13T14:09:04;26.70;99.90
36594;DHT22;22603;47.900;8.146;2023-07-13T14:11:52;27.10;99.90
36594;DHT22;22603;47.900;8.146;2023-07-13T14:14:39;26.60;99.90
36594;DHT22;22603;47.900;8.146;2023-07-13T14:17:27;25.80;99.90
36594;DHT22;22603;47.900;8.146;2023-07-13T14:20:16;25.70;99.90
36594;DHT22;22603;47.900;8.146;2023-07-13T14:23:04;25.60;99.90
36594;DHT22;22603;47.900;8.146;2023-07-13T14:25:50;25.20;99.90
36594;DHT22;22603;47.900;8.146;2023-07-13T14:28:40;25.10;99.90
36594;DHT22;22603;47.900;8.146;2023-07-13T14:31:28;25.40;99.90
36594;DHT22;22603;47.900;8.146;2023-07-13T14:34:16;25.00;99.90
36594;DHT22;22603;47.900;8.146;2023-07-13T14:37:05;25.00;99.90
36594;DHT22;22603;47.900;8.146;2023-07-13T14:39:53;25.10;99.90
36594;DHT22;22603;47.900;8.146;2023-07-13T14:42:40;25.60;99.90
36594;DHT22;22603;47.900;8.146;2023-07-13T14:45:28;25.90;99.90
36594;DHT22;22603;47.900;8.146;2023-07-13T14:48:17;26.10;99.90
36594;DHT22;22603;47.900;8.146;2023-07-13T14:51:07;26.50;99.90
36594;DHT22;22603;47.900;8.146;2023-07-13T14:53:57;26.40;99.90
36594;DHT22;22603;47.900;8.146;2023-07-13T14:56:44;26.40;99.90
36594;DHT22;22603;47.900;8.146;2023-07-13T14:59:31;26.50;99.90
36594;DHT22;22603;47.900;8.146;2023-07-13T15:02:22;26.60;99.90
36594;DHT22;22603;47.900;8.146;2023-07-13T15:05:13;26.20;99.90
36594;DHT22;22603;47.900;8.146;2023-07-13T15:08:02;25.60;99.90
36594;DHT22;22603;47.900;8.146;2023-07-13T15:10:51;25.10;99.90
36594;DHT22;22603;47.900;8.146;2023-07-13T15:13:39;25.20;99.90
36594;DHT22;22603;47.900;8.146;2023-07-13T15:16:27;25.10;99.90
36594;DHT22;22603;47.900;8.146;2023-07-13T15:19:15;25.00;99.90
36594;DHT22;22603;47.900;8.146;2023-07-13T15:22:03;25.20;99.90
36594;DHT22;22603;47.900;8.146;2023-07-13T15:24:51;25.30;99.90
36594;DHT22;22603;47.900;8.146;2023-07-13T15:27:39;25.10;99.90
36594;DHT22;22603;47.900;8.146;2023-07-13T15:30:29;25.20;99.90
36594;DHT22;22603;47.900;8.146;2023-07-13T15:33:21;25.30;99.90
36594;DHT22;22603;47.900;8.146;2023-07-13T15:36:08;25.50;99.90
36594;DHT22;22603;47.900;8.146;2023-07-13T15:38:59;25.60;99.90
36594;DHT22;22603;47.900;8.146;2023-07-13T15:41:46;25.50;99.90
36594;DHT22;22603;47.900;8.146;2023-07-13T15:44:36;25.20;99.90
36594;DHT22;22603;47.900;8.146;2023-07-13T15:47:23;25.10;99.90
36594;DHT22;22603;47.900;8.146;2023-07-13T15:50:13;24.90;99.90
36594;DHT22;22603;47.900;8.146;2023-07-13T15:52:59;25.10;99.90
36594;DHT22;22603;47.900;8.146;2023-07-13T15:55:48;25.50;99.90
36594;DHT22;22603;47.900;8.146;2023-07-13T15:58:36;25.20;99.90
36594;DHT22;22603;47.900;8.146;2023-07-13T16:01:26;24.80;99.90
36594;DHT22;22603;47.900;8.146;2023-07-13T16:04:14;24.70;99.90
36594;DHT22;22603;47.900;8.146;2023-07-13T16:07:01;24.60;99.90
36594;DHT22;22603;47.900;8.146;2023-07-13T16:09:48;24.60;99.90
36594;DHT22;22603;47.900;8.146;2023-07-13T16:12:35;24.30;99.90
36594;DHT22;22603;47.900;8.146;2023-07-13T16:15:25;24.50;99.90
36594;DHT22;22603;47.900;8.146;2023-07-13T16:18:13;24.60;99.90
36594;DHT22;22603;47.900;8.146;2023-07-13T16:21:02;24.30;99.90
36594;DHT22;22603;47.900;8.146;2023-07-13T16:23:49;24.10;99.90
36594;DHT22;22603;47.900;8.146;2023-07-13T16:26:49;24.30;99.90
36594;DHT22;22603;47.900;8.146;2023-07-13T16:29:36;24.10;99.90
36594;DHT22;22603;47.900;8.146;2023-07-13T16:32:24;24.10;99.90
36594;DHT22;22603;47.900;8.146;2023-07-13T16:35:13;23.80;99.90
36594;DHT22;22603;47.900;8.146;2023-07-13T16:38:01;23.80;99.90
36594;DHT22;22603;47.900;8.146;2023-07-13T16:40:48;23.60;99.90
36594;DHT22;22603;47.900;8.146;2023-07-13T16:43:36;23.80;99.90
36594;DHT22;22603;47.900;8.146;2023-07-13T16:46:25;24.00;99.90
36594;DHT22;22603;47.900;8.146;2023-07-13T16:49:26;24.00;99.90
36594;DHT22;22603;47.900;8.146;2023-07-13T16:52:16;24.00;99.90
36594;DHT22;22603;47.900;8.146;2023-07-13T16:55:08;24.00;99.90
36594;DHT22;22603;47.900;8.146;2023-07-13T16:57:58;23.90;99.90
36594;DHT22;22603;47.900;8.146;2023-07-13T17:00:48;23.70;99.90
36594;DHT22;22603;47.900;8.146;2023-07-13T17:03:38;23.60;99.90
36594;DHT22;22603;47.900;8.146;2023-07-13T17:06:25;23.40;99.90
36594;DHT22;22603;47.900;8.146;2023-07-13T17:09:13;23.40;99.90
36594;DHT22;22603;47.900;8.146;2023-07-13T17:12:01;23.20;99.90
36594;DHT22;22603;47.900;8.146;2023-07-13T17:14:48;22.90;99.90
36594;DHT22;22603;47.900;8.146;2023-07-13T17:17:36;22.60;99.90
36594;DHT22;22603;47.900;8.146;2023-07-13T17:20:30;22.40;99.90
36594;DHT22;22603;47.900;8.146;2023-07-13T17:23:20;22.20;99.90
36594;DHT22;22603;47.900;8.146;2023-07-13T17:26:08;22.00;99.90
36594;DHT22;22603;47.900;8.146;2023-07-13T17:28:56;21.80;99.90
36594;DHT22;22603;47.900;8.146;2023-07-13T17:31:43;21.50;99.90
36594;DHT22;22603;47.900;8.146;2023-07-13T17:34:32;21.40;99.90
36594;DHT22;22603;47.900;8.146;2023-07-13T17:37:19;21.30;99.90
36594;DHT22;22603;47.900;8.146;2023-07-13T17:40:13;21.20;99.90
36594;DHT22;22603;47.900;8.146;2023-07-13T17:43:05;21.10;99.90
36594;DHT22;22603;47.900;8.146;2023-07-13T17:45:54;21.00;99.90
36594;DHT22;22603;47.900;8.146;2023-07-13T17:48:44;21.00;99.90
36594;DHT22;22603;47.900;8.146;2023-07-13T17:51:31;20.80;99.90
36594;DHT22;22603;47.900;8.146;2023-07-13T17:54:21;20.70;99.90
36594;DHT22;22603;47.900;8.146;2023-07-13T17:57:10;20.70;99.90
36594;DHT22;22603;47.900;8.146;2023-07-13T17:59:59;20.70;99.90
36594;DHT22;22603;47.900;8.146;2023-07-13T18:02:46;20.60;99.90
36594;DHT22;22603;47.900;8.146;2023-07-13T18:05:34;20.50;99.90
36594;DHT22;22603;47.900;8.146;2023-07-13T18:08:25;20.60;99.90
36594;DHT22;22603;47.900;8.146;2023-07-13T18:11:13;20.40;99.90
36594;DHT22;22603;47.900;8.146;2023-07-13T18:14:00;20.30;99.90
36594;DHT22;22603;47.900;8.146;2023-07-13T18:16:53;20.20;99.90
36594;DHT22;22603;47.900;8.146;2023-07-13T18:19:42;20.20;99.90
36594;DHT22;22603;47.900;8.146;2023-07-13T18:22:31;20.10;99.90
36594;DHT22;22603;47.900;8.146;2023-07-13T18:25:20;20.10;99.90